Gayville, New York
Current Conditions -  °F | °C
As of 9:54 PM on Monday 20 Oct 2014 (Local Time) from KSYR Reporting Station
Light Rain Light Rain  
Wind Chill: 13°   Ceiling: 3300
Heat Index: 13°   Visibility: 7mi
Dew Point:   Wind: 13mph
Humidity: 50%   Direction: 210°SSW
Pressure: 29.87"   Gusts: NA
Location:  43.2999°N, 76.0002°W
Report Text: KSYR 210154Z 21011KT 7 SM -RA BKN033 OVC060 13/03 A2987 RMK RAE01B38 SLP113 T01330031
Loading
Personal Weather Stations






























Interactive Weather Map
Tropical Storm Tracking
New forecast layout! Learn more

10-Day Weather Forecast

Advertisements
Track Severe Weather on mobile